sensor_id;sensor_type;location;lat;lon;timestamp;P1;durP1;ratioP1;P2;durP2;ratioP2
956;SDS011;465;48.802;9.224;2022-07-23T00:00:11;7.20;;;6.27;;
956;SDS011;465;48.802;9.224;2022-07-23T00:02:39;7.83;;;7.10;;
956;SDS011;465;48.802;9.224;2022-07-23T00:05:05;7.37;;;6.70;;
956;SDS011;465;48.802;9.224;2022-07-23T00:07:33;6.33;;;5.83;;
956;SDS011;465;48.802;9.224;2022-07-23T00:10:00;8.00;;;7.37;;
956;SDS011;465;48.802;9.224;2022-07-23T00:12:26;6.90;;;6.30;;
956;SDS011;465;48.802;9.224;2022-07-23T00:14:54;7.37;;;6.77;;
956;SDS011;465;48.802;9.224;2022-07-23T00:17:21;8.10;;;7.37;;
956;SDS011;465;48.802;9.224;2022-07-23T00:19:48;8.23;;;7.60;;
956;SDS011;465;48.802;9.224;2022-07-23T00:22:14;7.07;;;6.37;;
956;SDS011;465;48.802;9.224;2022-07-23T00:24:41;6.60;;;6.10;;
956;SDS011;465;48.802;9.224;2022-07-23T00:27:08;6.50;;;6.00;;
956;SDS011;465;48.802;9.224;2022-07-23T00:29:34;6.43;;;5.80;;
956;SDS011;465;48.802;9.224;2022-07-23T00:32:03;6.87;;;5.70;;
956;SDS011;465;48.802;9.224;2022-07-23T00:34:30;6.83;;;6.23;;
956;SDS011;465;48.802;9.224;2022-07-23T00:36:56;6.90;;;6.17;;
956;SDS011;465;48.802;9.224;2022-07-23T00:39:23;6.13;;;5.27;;
956;SDS011;465;48.802;9.224;2022-07-23T00:41:50;6.40;;;5.90;;
956;SDS011;465;48.802;9.224;2022-07-23T00:44:18;5.47;;;5.07;;
956;SDS011;465;48.802;9.224;2022-07-23T00:46:46;6.10;;;5.60;;
956;SDS011;465;48.802;9.224;2022-07-23T00:49:15;6.53;;;5.93;;
956;SDS011;465;48.802;9.224;2022-07-23T00:51:42;6.63;;;6.03;;
956;SDS011;465;48.802;9.224;2022-07-23T00:54:09;6.27;;;5.77;;
956;SDS011;465;48.802;9.224;2022-07-23T00:56:36;7.37;;;6.73;;
956;SDS011;465;48.802;9.224;2022-07-23T00:59:03;5.67;;;5.27;;
956;SDS011;465;48.802;9.224;2022-07-23T01:01:32;6.23;;;5.73;;
956;SDS011;465;48.802;9.224;2022-07-23T01:03:59;6.73;;;6.23;;
956;SDS011;465;48.802;9.224;2022-07-23T01:06:27;6.33;;;5.83;;
956;SDS011;465;48.802;9.224;2022-07-23T01:08:54;6.00;;;5.50;;
956;SDS011;465;48.802;9.224;2022-07-23T01:11:22;6.30;;;5.80;;
956;SDS011;465;48.802;9.224;2022-07-23T01:13:49;5.60;;;5.20;;
956;SDS011;465;48.802;9.224;2022-07-23T01:16:16;6.13;;;5.63;;
956;SDS011;465;48.802;9.224;2022-07-23T01:18:43;6.10;;;5.50;;
956;SDS011;465;48.802;9.224;2022-07-23T01:21:10;6.60;;;6.10;;
956;SDS011;465;48.802;9.224;2022-07-23T01:23:40;6.77;;;5.80;;
956;SDS011;465;48.802;9.224;2022-07-23T01:26:07;7.30;;;6.60;;
956;SDS011;465;48.802;9.224;2022-07-23T01:28:33;6.83;;;6.10;;
956;SDS011;465;48.802;9.224;2022-07-23T01:31:00;6.20;;;5.60;;
956;SDS011;465;48.802;9.224;2022-07-23T01:33:27;5.67;;;5.13;;
956;SDS011;465;48.802;9.224;2022-07-23T01:35:54;5.93;;;5.53;;
956;SDS011;465;48.802;9.224;2022-07-23T01:38:20;6.10;;;5.47;;
956;SDS011;465;48.802;9.224;2022-07-23T01:40:48;6.47;;;5.97;;
956;SDS011;465;48.802;9.224;2022-07-23T01:43:15;6.10;;;5.57;;
956;SDS011;465;48.802;9.224;2022-07-23T01:45:42;8.50;;;5.93;;
956;SDS011;465;48.802;9.224;2022-07-23T01:48:09;6.10;;;5.60;;
956;SDS011;465;48.802;9.224;2022-07-23T01:50:36;6.10;;;5.67;;
956;SDS011;465;48.802;9.224;2022-07-23T01:53:02;6.03;;;5.57;;
956;SDS011;465;48.802;9.224;2022-07-23T01:55:29;6.23;;;5.73;;
956;SDS011;465;48.802;9.224;2022-07-23T01:57:57;6.03;;;5.53;;
956;SDS011;465;48.802;9.224;2022-07-23T02:00:24;6.10;;;5.60;;
956;SDS011;465;48.802;9.224;2022-07-23T02:02:51;6.07;;;5.63;;
956;SDS011;465;48.802;9.224;2022-07-23T02:05:17;6.33;;;5.67;;
956;SDS011;465;48.802;9.224;2022-07-23T02:07:44;6.23;;;5.73;;
956;SDS011;465;48.802;9.224;2022-07-23T02:10:11;6.90;;;6.30;;
956;SDS011;465;48.802;9.224;2022-07-23T02:12:37;6.10;;;5.47;;
956;SDS011;465;48.802;9.224;2022-07-23T02:15:06;5.50;;;5.10;;
956;SDS011;465;48.802;9.224;2022-07-23T02:17:33;6.43;;;5.83;;
956;SDS011;465;48.802;9.224;2022-07-23T02:20:00;6.17;;;5.60;;
956;SDS011;465;48.802;9.224;2022-07-23T02:22:27;8.50;;;6.30;;
956;SDS011;465;48.802;9.224;2022-07-23T02:24:54;6.67;;;6.07;;
956;SDS011;465;48.802;9.224;2022-07-23T02:27:21;6.40;;;5.90;;
956;SDS011;465;48.802;9.224;2022-07-23T02:29:48;6.83;;;5.80;;
956;SDS011;465;48.802;9.224;2022-07-23T02:32:16;6.60;;;6.07;;
956;SDS011;465;48.802;9.224;2022-07-23T02:34:42;7.43;;;6.80;;
956;SDS011;465;48.802;9.224;2022-07-23T02:37:09;7.13;;;6.37;;
956;SDS011;465;48.802;9.224;2022-07-23T02:39:36;6.33;;;5.87;;
956;SDS011;465;48.802;9.224;2022-07-23T02:42:03;6.13;;;5.63;;
956;SDS011;465;48.802;9.224;2022-07-23T02:44:29;9.23;;;6.87;;
956;SDS011;465;48.802;9.224;2022-07-23T02:46:56;7.20;;;6.60;;
956;SDS011;465;48.802;9.224;2022-07-23T02:49:24;7.17;;;6.07;;
956;SDS011;465;48.802;9.224;2022-07-23T02:51:51;6.80;;;6.20;;
956;SDS011;465;48.802;9.224;2022-07-23T02:54:18;6.47;;;5.90;;
956;SDS011;465;48.802;9.224;2022-07-23T02:56:45;7.20;;;6.57;;
956;SDS011;465;48.802;9.224;2022-07-23T02:59:11;6.73;;;6.03;;
956;SDS011;465;48.802;9.224;2022-07-23T03:01:38;6.70;;;6.20;;
956;SDS011;465;48.802;9.224;2022-07-23T03:04:05;6.60;;;6.00;;
956;SDS011;465;48.802;9.224;2022-07-23T03:06:33;6.70;;;6.20;;
956;SDS011;465;48.802;9.224;2022-07-23T03:09:00;6.50;;;5.90;;
956;SDS011;465;48.802;9.224;2022-07-23T03:11:26;6.57;;;6.10;;
956;SDS011;465;48.802;9.224;2022-07-23T03:13:53;5.77;;;5.37;;
956;SDS011;465;48.802;9.224;2022-07-23T03:16:19;6.53;;;5.90;;
956;SDS011;465;48.802;9.224;2022-07-23T03:18:46;5.97;;;5.47;;
956;SDS011;465;48.802;9.224;2022-07-23T03:21:13;6.27;;;5.77;;
956;SDS011;465;48.802;9.224;2022-07-23T03:23:41;6.20;;;5.70;;
956;SDS011;465;48.802;9.224;2022-07-23T03:26:08;6.63;;;6.03;;
956;SDS011;465;48.802;9.224;2022-07-23T03:28:35;6.93;;;6.33;;
956;SDS011;465;48.802;9.224;2022-07-23T03:31:01;6.50;;;5.90;;
956;SDS011;465;48.802;9.224;2022-07-23T03:33:28;8.27;;;7.53;;
956;SDS011;465;48.802;9.224;2022-07-23T03:35:54;7.23;;;6.60;;
956;SDS011;465;48.802;9.224;2022-07-23T03:38:21;7.53;;;6.93;;
956;SDS011;465;48.802;9.224;2022-07-23T03:40:49;6.60;;;6.00;;
956;SDS011;465;48.802;9.224;2022-07-23T03:43:16;6.90;;;6.40;;
956;SDS011;465;48.802;9.224;2022-07-23T03:45:43;7.70;;;7.03;;
956;SDS011;465;48.802;9.224;2022-07-23T03:48:09;7.00;;;6.30;;
956;SDS011;465;48.802;9.224;2022-07-23T03:50:36;6.67;;;6.07;;
956;SDS011;465;48.802;9.224;2022-07-23T03:53:03;7.33;;;6.63;;
956;SDS011;465;48.802;9.224;2022-07-23T03:55:29;6.70;;;6.10;;
956;SDS011;465;48.802;9.224;2022-07-23T03:57:57;7.30;;;6.70;;
956;SDS011;465;48.802;9.224;2022-07-23T04:00:24;7.30;;;6.60;;
956;SDS011;465;48.802;9.224;2022-07-23T04:02:51;7.67;;;6.97;;
956;SDS011;465;48.802;9.224;2022-07-23T04:05:17;7.50;;;6.80;;
956;SDS011;465;48.802;9.224;2022-07-23T04:07:44;6.90;;;6.23;;
956;SDS011;465;48.802;9.224;2022-07-23T04:10:11;9.50;;;8.70;;
956;SDS011;465;48.802;9.224;2022-07-23T04:12:38;7.90;;;7.20;;
956;SDS011;465;48.802;9.224;2022-07-23T04:15:07;8.90;;;8.10;;
956;SDS011;465;48.802;9.224;2022-07-23T04:17:34;8.33;;;7.63;;
956;SDS011;465;48.802;9.224;2022-07-23T04:20:01;9.57;;;8.67;;
956;SDS011;465;48.802;9.224;2022-07-23T04:22:27;9.87;;;8.97;;
956;SDS011;465;48.802;9.224;2022-07-23T04:24:54;8.90;;;8.03;;
956;SDS011;465;48.802;9.224;2022-07-23T04:27:21;9.40;;;8.50;;
956;SDS011;465;48.802;9.224;2022-07-23T04:29:47;8.37;;;7.57;;
956;SDS011;465;48.802;9.224;2022-07-23T04:32:15;8.93;;;8.10;;
956;SDS011;465;48.802;9.224;2022-07-23T04:34:42;7.97;;;7.37;;
956;SDS011;465;48.802;9.224;2022-07-23T04:37:09;8.37;;;7.60;;
956;SDS011;465;48.802;9.224;2022-07-23T04:39:35;8.57;;;7.77;;
956;SDS011;465;48.802;9.224;2022-07-23T04:42:02;9.27;;;8.47;;
956;SDS011;465;48.802;9.224;2022-07-23T04:44:29;8.80;;;8.10;;
956;SDS011;465;48.802;9.224;2022-07-23T04:46:56;8.17;;;7.47;;
956;SDS011;465;48.802;9.224;2022-07-23T04:49:24;8.43;;;7.63;;
956;SDS011;465;48.802;9.224;2022-07-23T04:51:50;7.70;;;6.97;;
956;SDS011;465;48.802;9.224;2022-07-23T04:54:17;8.40;;;7.60;;
956;SDS011;465;48.802;9.224;2022-07-23T04:56:43;7.40;;;6.60;;
956;SDS011;465;48.802;9.224;2022-07-23T04:59:10;7.20;;;6.70;;
956;SDS011;465;48.802;9.224;2022-07-23T05:01:37;7.60;;;6.90;;
956;SDS011;465;48.802;9.224;2022-07-23T05:04:04;7.83;;;5.83;;
956;SDS011;465;48.802;9.224;2022-07-23T05:06:32;7.77;;;7.10;;
956;SDS011;465;48.802;9.224;2022-07-23T05:08:58;7.00;;;6.30;;
956;SDS011;465;48.802;9.224;2022-07-23T05:11:25;7.27;;;6.67;;
956;SDS011;465;48.802;9.224;2022-07-23T05:13:52;7.07;;;6.43;;
956;SDS011;465;48.802;9.224;2022-07-23T05:16:18;7.47;;;6.53;;
956;SDS011;465;48.802;9.224;2022-07-23T05:18:45;7.10;;;6.50;;
956;SDS011;465;48.802;9.224;2022-07-23T05:21:12;6.80;;;6.10;;
956;SDS011;465;48.802;9.224;2022-07-23T05:23:40;7.10;;;6.57;;
956;SDS011;465;48.802;9.224;2022-07-23T05:26:09;7.70;;;7.10;;
956;SDS011;465;48.802;9.224;2022-07-23T05:28:36;8.70;;;7.90;;
956;SDS011;465;48.802;9.224;2022-07-23T05:31:02;7.93;;;7.30;;
956;SDS011;465;48.802;9.224;2022-07-23T05:36:07;7.70;;;7.00;;
956;SDS011;465;48.802;9.224;2022-07-23T05:38:34;10.27;;;7.43;;
956;SDS011;465;48.802;9.224;2022-07-23T05:41:02;9.37;;;8.47;;
956;SDS011;465;48.802;9.224;2022-07-23T05:43:29;7.90;;;6.50;;
956;SDS011;465;48.802;9.224;2022-07-23T05:45:56;10.70;;;7.63;;
956;SDS011;465;48.802;9.224;2022-07-23T05:48:22;7.30;;;6.70;;
956;SDS011;465;48.802;9.224;2022-07-23T05:50:49;7.67;;;7.03;;
956;SDS011;465;48.802;9.224;2022-07-23T05:53:16;7.97;;;7.37;;
956;SDS011;465;48.802;9.224;2022-07-23T05:55:43;7.97;;;7.00;;
956;SDS011;465;48.802;9.224;2022-07-23T05:58:11;8.03;;;7.43;;
956;SDS011;465;48.802;9.224;2022-07-23T06:00:37;8.13;;;7.27;;
956;SDS011;465;48.802;9.224;2022-07-23T06:03:04;7.37;;;6.63;;
956;SDS011;465;48.802;9.224;2022-07-23T06:05:31;7.50;;;6.90;;
956;SDS011;465;48.802;9.224;2022-07-23T06:07:58;8.60;;;7.70;;
956;SDS011;465;48.802;9.224;2022-07-23T06:10:24;7.87;;;6.97;;
956;SDS011;465;48.802;9.224;2022-07-23T06:12:51;7.20;;;6.63;;
956;SDS011;465;48.802;9.224;2022-07-23T06:15:19;7.50;;;6.90;;
956;SDS011;465;48.802;9.224;2022-07-23T06:17:46;9.27;;;8.37;;
956;SDS011;465;48.802;9.224;2022-07-23T06:20:13;7.40;;;6.80;;
956;SDS011;465;48.802;9.224;2022-07-23T06:22:39;8.10;;;7.40;;
956;SDS011;465;48.802;9.224;2022-07-23T06:25:07;7.80;;;7.10;;
956;SDS011;465;48.802;9.224;2022-07-23T06:27:34;7.73;;;7.13;;
956;SDS011;465;48.802;9.224;2022-07-23T06:30:01;8.23;;;7.53;;
956;SDS011;465;48.802;9.224;2022-07-23T06:32:29;7.50;;;6.90;;
956;SDS011;465;48.802;9.224;2022-07-23T06:34:56;8.33;;;7.63;;
956;SDS011;465;48.802;9.224;2022-07-23T06:37:22;7.80;;;7.20;;
956;SDS011;465;48.802;9.224;2022-07-23T06:39:49;7.90;;;7.20;;
956;SDS011;465;48.802;9.224;2022-07-23T06:42:16;7.80;;;7.20;;
956;SDS011;465;48.802;9.224;2022-07-23T06:44:42;7.97;;;7.27;;
956;SDS011;465;48.802;9.224;2022-07-23T06:47:09;8.10;;;7.40;;
956;SDS011;465;48.802;9.224;2022-07-23T06:49:37;8.70;;;8.00;;
956;SDS011;465;48.802;9.224;2022-07-23T06:52:06;8.27;;;7.63;;
956;SDS011;465;48.802;9.224;2022-07-23T06:54:32;8.13;;;7.53;;
956;SDS011;465;48.802;9.224;2022-07-23T06:56:59;8.37;;;7.57;;
956;SDS011;465;48.802;9.224;2022-07-23T06:59:26;7.20;;;6.50;;
956;SDS011;465;48.802;9.224;2022-07-23T07:01:53;8.47;;;7.67;;
956;SDS011;465;48.802;9.224;2022-07-23T07:04:19;8.13;;;7.43;;
956;SDS011;465;48.802;9.224;2022-07-23T07:06:47;8.50;;;7.70;;
956;SDS011;465;48.802;9.224;2022-07-23T07:09:14;7.83;;;7.23;;
956;SDS011;465;48.802;9.224;2022-07-23T07:11:41;8.60;;;7.80;;
956;SDS011;465;48.802;9.224;2022-07-23T07:14:08;7.97;;;7.20;;
956;SDS011;465;48.802;9.224;2022-07-23T07:16:34;9.00;;;8.10;;
956;SDS011;465;48.802;9.224;2022-07-23T07:19:01;9.37;;;8.57;;
956;SDS011;465;48.802;9.224;2022-07-23T07:21:28;9.00;;;8.40;;
956;SDS011;465;48.802;9.224;2022-07-23T07:23:56;8.73;;;7.93;;
956;SDS011;465;48.802;9.224;2022-07-23T07:26:22;9.10;;;8.40;;
956;SDS011;465;48.802;9.224;2022-07-23T07:28:49;8.80;;;7.97;;
956;SDS011;465;48.802;9.224;2022-07-23T07:31:16;9.23;;;8.43;;
956;SDS011;465;48.802;9.224;2022-07-23T07:33:43;8.77;;;7.90;;
956;SDS011;465;48.802;9.224;2022-07-23T07:36:09;8.67;;;7.87;;
956;SDS011;465;48.802;9.224;2022-07-23T07:38:36;8.83;;;8.13;;
956;SDS011;465;48.802;9.224;2022-07-23T07:41:04;7.83;;;7.13;;
956;SDS011;465;48.802;9.224;2022-07-23T07:43:32;9.37;;;8.47;;
956;SDS011;465;48.802;9.224;2022-07-23T07:45:59;9.20;;;8.40;;
956;SDS011;465;48.802;9.224;2022-07-23T07:48:25;9.30;;;8.50;;
956;SDS011;465;48.802;9.224;2022-07-23T07:50:52;9.53;;;8.83;;
956;SDS011;465;48.802;9.224;2022-07-23T07:53:19;9.00;;;8.10;;
956;SDS011;465;48.802;9.224;2022-07-23T07:55:45;9.40;;;8.50;;
956;SDS011;465;48.802;9.224;2022-07-23T07:58:13;8.20;;;7.40;;
956;SDS011;465;48.802;9.224;2022-07-23T08:00:40;8.97;;;8.27;;
956;SDS011;465;48.802;9.224;2022-07-23T08:03:07;9.20;;;8.00;;
956;SDS011;465;48.802;9.224;2022-07-23T08:05:33;7.70;;;7.10;;
956;SDS011;465;48.802;9.224;2022-07-23T08:08:00;8.53;;;7.83;;
956;SDS011;465;48.802;9.224;2022-07-23T08:10:27;9.30;;;8.60;;
956;SDS011;465;48.802;9.224;2022-07-23T08:12:56;8.37;;;7.60;;
956;SDS011;465;48.802;9.224;2022-07-23T08:15:27;7.90;;;7.30;;
956;SDS011;465;48.802;9.224;2022-07-23T08:17:55;8.53;;;7.83;;
956;SDS011;465;48.802;9.224;2022-07-23T08:20:23;8.50;;;7.70;;
956;SDS011;465;48.802;9.224;2022-07-23T08:22:51;8.13;;;7.53;;
956;SDS011;465;48.802;9.224;2022-07-23T08:25:19;7.57;;;7.07;;
956;SDS011;465;48.802;9.224;2022-07-23T08:27:48;8.07;;;7.37;;
956;SDS011;465;48.802;9.224;2022-07-23T08:30:15;8.00;;;7.40;;
956;SDS011;465;48.802;9.224;2022-07-23T08:32:51;9.33;;;8.10;;
956;SDS011;465;48.802;9.224;2022-07-23T08:35:21;8.37;;;7.77;;
956;SDS011;465;48.802;9.224;2022-07-23T08:37:49;7.93;;;7.20;;
956;SDS011;465;48.802;9.224;2022-07-23T08:40:16;8.07;;;7.47;;
956;SDS011;465;48.802;9.224;2022-07-23T08:42:44;8.10;;;7.40;;
956;SDS011;465;48.802;9.224;2022-07-23T08:45:13;8.07;;;7.33;;
956;SDS011;465;48.802;9.224;2022-07-23T08:47:43;8.93;;;8.30;;
956;SDS011;465;48.802;9.224;2022-07-23T08:50:11;8.47;;;7.67;;
956;SDS011;465;48.802;9.224;2022-07-23T08:52:38;8.73;;;8.03;;
956;SDS011;465;48.802;9.224;2022-07-23T08:55:06;8.30;;;7.67;;
956;SDS011;465;48.802;9.224;2022-07-23T08:57:34;7.77;;;7.17;;
956;SDS011;465;48.802;9.224;2022-07-23T09:00:00;7.93;;;7.10;;
956;SDS011;465;48.802;9.224;2022-07-23T09:02:29;7.57;;;6.97;;
956;SDS011;465;48.802;9.224;2022-07-23T09:04:55;7.83;;;7.17;;
956;SDS011;465;48.802;9.224;2022-07-23T09:07:23;7.50;;;7.00;;
956;SDS011;465;48.802;9.224;2022-07-23T09:09:58;8.30;;;7.50;;
956;SDS011;465;48.802;9.224;2022-07-23T09:12:31;7.70;;;7.10;;
956;SDS011;465;48.802;9.224;2022-07-23T09:15:03;7.93;;;7.40;;
956;SDS011;465;48.802;9.224;2022-07-23T09:17:36;6.57;;;6.10;;
956;SDS011;465;48.802;9.224;2022-07-23T09:20:08;7.47;;;6.97;;
956;SDS011;465;48.802;9.224;2022-07-23T09:22:38;6.47;;;5.97;;
956;SDS011;465;48.802;9.224;2022-07-23T09:25:10;7.40;;;6.80;;
956;SDS011;465;48.802;9.224;2022-07-23T09:27:45;7.40;;;6.80;;
956;SDS011;465;48.802;9.224;2022-07-23T09:30:14;7.17;;;6.67;;
956;SDS011;465;48.802;9.224;2022-07-23T09:32:41;7.10;;;6.57;;
956;SDS011;465;48.802;9.224;2022-07-23T09:35:07;6.97;;;6.47;;
956;SDS011;465;48.802;9.224;2022-07-23T09:37:34;6.60;;;6.20;;
956;SDS011;465;48.802;9.224;2022-07-23T09:40:06;7.50;;;7.00;;
956;SDS011;465;48.802;9.224;2022-07-23T09:42:36;8.97;;;7.07;;
956;SDS011;465;48.802;9.224;2022-07-23T09:45:04;7.10;;;6.50;;
956;SDS011;465;48.802;9.224;2022-07-23T09:47:37;6.53;;;6.13;;
956;SDS011;465;48.802;9.224;2022-07-23T09:50:04;7.20;;;6.60;;
956;SDS011;465;48.802;9.224;2022-07-23T09:52:34;7.07;;;6.57;;
956;SDS011;465;48.802;9.224;2022-07-23T09:55:03;6.43;;;5.93;;
956;SDS011;465;48.802;9.224;2022-07-23T09:57:32;7.37;;;6.87;;
956;SDS011;465;48.802;9.224;2022-07-23T10:00:00;6.93;;;6.43;;
956;SDS011;465;48.802;9.224;2022-07-23T10:02:28;12.10;;;10.93;;
956;SDS011;465;48.802;9.224;2022-07-23T10:04:57;7.73;;;7.23;;
956;SDS011;465;48.802;9.224;2022-07-23T10:07:25;6.10;;;5.70;;
956;SDS011;465;48.802;9.224;2022-07-23T10:09:55;6.60;;;6.20;;
956;SDS011;465;48.802;9.224;2022-07-23T10:12:22;6.30;;;5.80;;
956;SDS011;465;48.802;9.224;2022-07-23T10:15:12;6.70;;;6.20;;
956;SDS011;465;48.802;9.224;2022-07-23T10:17:39;6.97;;;6.50;;
956;SDS011;465;48.802;9.224;2022-07-23T10:20:06;6.83;;;6.33;;
956;SDS011;465;48.802;9.224;2022-07-23T10:22:33;6.80;;;6.20;;
956;SDS011;465;48.802;9.224;2022-07-23T10:25:08;6.53;;;6.10;;
956;SDS011;465;48.802;9.224;2022-07-23T10:27:45;6.40;;;5.97;;
956;SDS011;465;48.802;9.224;2022-07-23T10:30:28;6.83;;;6.37;;
956;SDS011;465;48.802;9.224;2022-07-23T10:33:09;6.40;;;5.97;;
956;SDS011;465;48.802;9.224;2022-07-23T10:35:46;6.27;;;5.83;;
956;SDS011;465;48.802;9.224;2022-07-23T10:38:18;6.50;;;6.10;;
956;SDS011;465;48.802;9.224;2022-07-23T10:40:54;6.80;;;6.40;;
956;SDS011;465;48.802;9.224;2022-07-23T10:43:22;6.53;;;6.10;;
956;SDS011;465;48.802;9.224;2022-07-23T10:45:50;6.47;;;6.07;;
956;SDS011;465;48.802;9.224;2022-07-23T10:48:18;6.20;;;5.80;;
956;SDS011;465;48.802;9.224;2022-07-23T10:53:54;6.70;;;6.30;;
956;SDS011;465;48.802;9.224;2022-07-23T10:59:31;7.00;;;6.50;;
956;SDS011;465;48.802;9.224;2022-07-23T11:04:51;6.77;;;6.37;;
956;SDS011;465;48.802;9.224;2022-07-23T11:07:18;6.93;;;6.43;;
956;SDS011;465;48.802;9.224;2022-07-23T11:09:45;6.00;;;5.60;;
956;SDS011;465;48.802;9.224;2022-07-23T11:14:59;6.33;;;5.93;;
956;SDS011;465;48.802;9.224;2022-07-23T11:17:27;7.10;;;6.60;;
956;SDS011;465;48.802;9.224;2022-07-23T11:20:16;6.63;;;6.20;;
956;SDS011;465;48.802;9.224;2022-07-23T11:22:51;6.73;;;6.33;;
956;SDS011;465;48.802;9.224;2022-07-23T11:25:34;7.03;;;6.53;;
956;SDS011;465;48.802;9.224;2022-07-23T11:28:08;7.70;;;7.20;;
956;SDS011;465;48.802;9.224;2022-07-23T11:30:41;7.17;;;6.67;;
956;SDS011;465;48.802;9.224;2022-07-23T11:33:18;6.93;;;6.43;;
956;SDS011;465;48.802;9.224;2022-07-23T11:35:46;6.97;;;6.53;;
956;SDS011;465;48.802;9.224;2022-07-23T11:38:16;7.30;;;6.60;;
956;SDS011;465;48.802;9.224;2022-07-23T11:40:45;7.20;;;6.70;;
956;SDS011;465;48.802;9.224;2022-07-23T11:43:13;6.13;;;5.73;;
956;SDS011;465;48.802;9.224;2022-07-23T11:45:40;7.00;;;6.60;;
956;SDS011;465;48.802;9.224;2022-07-23T11:48:09;7.40;;;6.90;;
956;SDS011;465;48.802;9.224;2022-07-23T11:50:43;6.00;;;5.60;;
956;SDS011;465;48.802;9.224;2022-07-23T11:53:10;6.30;;;5.90;;
956;SDS011;465;48.802;9.224;2022-07-23T11:55:37;6.93;;;6.43;;
956;SDS011;465;48.802;9.224;2022-07-23T11:58:04;6.50;;;6.10;;
956;SDS011;465;48.802;9.224;2022-07-23T12:00:31;7.47;;;6.97;;
956;SDS011;465;48.802;9.224;2022-07-23T12:03:00;6.73;;;6.00;;
956;SDS011;465;48.802;9.224;2022-07-23T12:05:29;6.83;;;6.43;;
956;SDS011;465;48.802;9.224;2022-07-23T12:07:59;7.23;;;6.63;;
956;SDS011;465;48.802;9.224;2022-07-23T12:10:27;7.23;;;6.63;;
956;SDS011;465;48.802;9.224;2022-07-23T12:12:56;6.80;;;6.20;;
956;SDS011;465;48.802;9.224;2022-07-23T12:15:25;6.60;;;6.20;;
956;SDS011;465;48.802;9.224;2022-07-23T12:17:54;7.20;;;6.70;;
956;SDS011;465;48.802;9.224;2022-07-23T12:20:21;6.80;;;6.30;;
956;SDS011;465;48.802;9.224;2022-07-23T12:22:50;7.37;;;6.93;;
956;SDS011;465;48.802;9.224;2022-07-23T12:25:19;6.53;;;6.03;;
956;SDS011;465;48.802;9.224;2022-07-23T12:27:57;7.03;;;6.53;;
956;SDS011;465;48.802;9.224;2022-07-23T12:30:26;7.10;;;6.50;;
956;SDS011;465;48.802;9.224;2022-07-23T12:32:55;6.77;;;6.30;;
956;SDS011;465;48.802;9.224;2022-07-23T12:35:29;7.37;;;6.87;;
956;SDS011;465;48.802;9.224;2022-07-23T12:37:59;6.60;;;6.20;;
956;SDS011;465;48.802;9.224;2022-07-23T12:40:29;7.43;;;6.93;;
956;SDS011;465;48.802;9.224;2022-07-23T12:42:58;7.90;;;7.30;;
956;SDS011;465;48.802;9.224;2022-07-23T12:45:28;7.60;;;7.07;;
956;SDS011;465;48.802;9.224;2022-07-23T12:48:14;7.13;;;6.70;;
956;SDS011;465;48.802;9.224;2022-07-23T12:50:44;7.80;;;7.30;;
956;SDS011;465;48.802;9.224;2022-07-23T12:53:16;7.77;;;7.27;;
956;SDS011;465;48.802;9.224;2022-07-23T12:55:47;7.53;;;6.97;;
956;SDS011;465;48.802;9.224;2022-07-23T12:58:15;7.60;;;7.10;;
956;SDS011;465;48.802;9.224;2022-07-23T13:00:57;8.30;;;7.60;;
956;SDS011;465;48.802;9.224;2022-07-23T13:03:27;7.97;;;7.40;;
956;SDS011;465;48.802;9.224;2022-07-23T13:05:56;7.87;;;7.17;;
956;SDS011;465;48.802;9.224;2022-07-23T13:08:24;8.30;;;7.70;;
956;SDS011;465;48.802;9.224;2022-07-23T13:10:54;8.63;;;7.93;;
956;SDS011;465;48.802;9.224;2022-07-23T13:13:21;8.50;;;7.90;;
956;SDS011;465;48.802;9.224;2022-07-23T13:15:49;7.90;;;7.30;;
956;SDS011;465;48.802;9.224;2022-07-23T13:18:18;7.90;;;7.23;;
956;SDS011;465;48.802;9.224;2022-07-23T13:20:46;7.87;;;7.37;;
956;SDS011;465;48.802;9.224;2022-07-23T13:23:14;7.00;;;6.50;;
956;SDS011;465;48.802;9.224;2022-07-23T13:25:41;9.50;;;8.70;;
956;SDS011;465;48.802;9.224;2022-07-23T13:28:10;7.57;;;7.07;;
956;SDS011;465;48.802;9.224;2022-07-23T13:30:37;7.73;;;7.23;;
956;SDS011;465;48.802;9.224;2022-07-23T13:33:04;8.17;;;7.57;;
956;SDS011;465;48.802;9.224;2022-07-23T13:35:31;7.43;;;6.93;;
956;SDS011;465;48.802;9.224;2022-07-23T13:37:59;8.70;;;8.00;;
956;SDS011;465;48.802;9.224;2022-07-23T13:40:26;8.80;;;8.03;;
956;SDS011;465;48.802;9.224;2022-07-23T13:42:53;8.27;;;7.67;;
956;SDS011;465;48.802;9.224;2022-07-23T13:45:21;7.73;;;7.10;;
956;SDS011;465;48.802;9.224;2022-07-23T13:47:48;7.97;;;7.37;;
956;SDS011;465;48.802;9.224;2022-07-23T13:50:15;8.17;;;7.63;;
956;SDS011;465;48.802;9.224;2022-07-23T13:52:42;8.93;;;8.33;;
956;SDS011;465;48.802;9.224;2022-07-23T13:55:09;8.40;;;7.90;;
956;SDS011;465;48.802;9.224;2022-07-23T13:57:36;7.87;;;7.37;;
956;SDS011;465;48.802;9.224;2022-07-23T14:00:05;8.87;;;8.27;;
956;SDS011;465;48.802;9.224;2022-07-23T14:02:36;10.17;;;9.17;;
956;SDS011;465;48.802;9.224;2022-07-23T14:05:04;9.10;;;8.50;;
956;SDS011;465;48.802;9.224;2022-07-23T14:07:33;9.63;;;8.93;;
956;SDS011;465;48.802;9.224;2022-07-23T14:10:00;9.07;;;8.47;;
956;SDS011;465;48.802;9.224;2022-07-23T14:12:27;9.93;;;9.20;;
956;SDS011;465;48.802;9.224;2022-07-23T14:14:54;9.30;;;8.70;;
956;SDS011;465;48.802;9.224;2022-07-23T14:17:21;8.77;;;8.17;;
956;SDS011;465;48.802;9.224;2022-07-23T14:19:50;9.30;;;8.70;;
956;SDS011;465;48.802;9.224;2022-07-23T14:22:17;9.20;;;8.40;;
956;SDS011;465;48.802;9.224;2022-07-23T14:24:44;9.70;;;8.70;;
956;SDS011;465;48.802;9.224;2022-07-23T14:27:11;9.70;;;9.00;;
956;SDS011;465;48.802;9.224;2022-07-23T14:29:37;9.20;;;8.60;;
956;SDS011;465;48.802;9.224;2022-07-23T14:32:04;8.43;;;7.87;;
956;SDS011;465;48.802;9.224;2022-07-23T14:34:32;8.83;;;8.20;;
956;SDS011;465;48.802;9.224;2022-07-23T14:37:00;9.47;;;8.77;;
956;SDS011;465;48.802;9.224;2022-07-23T14:39:28;9.30;;;8.57;;
956;SDS011;465;48.802;9.224;2022-07-23T14:41:54;9.17;;;8.47;;
956;SDS011;465;48.802;9.224;2022-07-23T14:44:21;9.47;;;8.70;;
956;SDS011;465;48.802;9.224;2022-07-23T14:46:48;9.20;;;8.50;;
956;SDS011;465;48.802;9.224;2022-07-23T14:49:15;9.63;;;8.93;;
956;SDS011;465;48.802;9.224;2022-07-23T14:51:42;9.50;;;8.87;;
956;SDS011;465;48.802;9.224;2022-07-23T14:54:11;9.30;;;8.60;;
956;SDS011;465;48.802;9.224;2022-07-23T14:56:39;9.30;;;8.60;;
956;SDS011;465;48.802;9.224;2022-07-23T14:59:06;8.43;;;7.83;;
956;SDS011;465;48.802;9.224;2022-07-23T15:01:33;8.97;;;8.30;;
956;SDS011;465;48.802;9.224;2022-07-23T15:04:01;9.53;;;8.87;;
956;SDS011;465;48.802;9.224;2022-07-23T15:06:28;8.53;;;7.93;;
956;SDS011;465;48.802;9.224;2022-07-23T15:08:55;8.73;;;8.10;;
956;SDS011;465;48.802;9.224;2022-07-23T15:11:24;8.70;;;8.10;;
956;SDS011;465;48.802;9.224;2022-07-23T15:13:51;10.00;;;9.20;;
956;SDS011;465;48.802;9.224;2022-07-23T15:16:17;9.07;;;8.47;;
956;SDS011;465;48.802;9.224;2022-07-23T15:18:45;9.77;;;9.07;;
956;SDS011;465;48.802;9.224;2022-07-23T15:21:12;9.93;;;9.23;;
956;SDS011;465;48.802;9.224;2022-07-23T15:23:38;9.67;;;8.90;;
956;SDS011;465;48.802;9.224;2022-07-23T15:26:06;9.93;;;9.03;;
956;SDS011;465;48.802;9.224;2022-07-23T15:28:35;8.60;;;8.00;;
956;SDS011;465;48.802;9.224;2022-07-23T15:31:03;9.43;;;8.73;;
956;SDS011;465;48.802;9.224;2022-07-23T15:33:30;8.63;;;7.93;;
956;SDS011;465;48.802;9.224;2022-07-23T15:35:57;8.73;;;8.03;;
956;SDS011;465;48.802;9.224;2022-07-23T15:38:24;9.63;;;8.77;;
956;SDS011;465;48.802;9.224;2022-07-23T15:40:52;9.60;;;8.90;;
956;SDS011;465;48.802;9.224;2022-07-23T15:43:19;8.27;;;7.57;;
956;SDS011;465;48.802;9.224;2022-07-23T15:45:48;7.77;;;7.20;;
956;SDS011;465;48.802;9.224;2022-07-23T15:48:16;10.47;;;9.60;;
956;SDS011;465;48.802;9.224;2022-07-23T15:50:44;10.13;;;9.23;;
956;SDS011;465;48.802;9.224;2022-07-23T15:53:12;10.43;;;9.73;;
956;SDS011;465;48.802;9.224;2022-07-23T15:55:39;10.50;;;9.13;;
956;SDS011;465;48.802;9.224;2022-07-23T15:58:08;9.13;;;8.50;;
956;SDS011;465;48.802;9.224;2022-07-23T16:00:37;9.70;;;9.00;;
956;SDS011;465;48.802;9.224;2022-07-23T16:03:05;9.60;;;8.77;;